sensor_id;sensor_type;location;lat;lon;timestamp;temperature;humidity
4366;DHT22;2196;47.422;9.656;2023-05-10T00:00:39;14.40;99.90
4366;DHT22;2196;47.422;9.656;2023-05-10T00:03:06;14.40;99.90
4366;DHT22;2196;47.422;9.656;2023-05-10T00:05:36;14.30;99.90
4366;DHT22;2196;47.422;9.656;2023-05-10T00:08:03;14.40;99.90
4366;DHT22;2196;47.422;9.656;2023-05-10T00:10:30;14.40;99.90
4366;DHT22;2196;47.422;9.656;2023-05-10T00:12:57;14.40;99.90
4366;DHT22;2196;47.422;9.656;2023-05-10T00:15:24;14.30;99.90
4366;DHT22;2196;47.422;9.656;2023-05-10T00:17:51;14.30;99.90
4366;DHT22;2196;47.422;9.656;2023-05-10T00:20:18;14.30;99.90
4366;DHT22;2196;47.422;9.656;2023-05-10T00:22:46;14.30;99.90
4366;DHT22;2196;47.422;9.656;2023-05-10T00:25:13;14.30;99.90
4366;DHT22;2196;47.422;9.656;2023-05-10T00:27:40;14.30;99.90
4366;DHT22;2196;47.422;9.656;2023-05-10T00:30:08;14.30;99.90
4366;DHT22;2196;47.422;9.656;2023-05-10T00:59:25;13.80;99.90
4366;DHT22;2196;47.422;9.656;2023-05-10T01:01:53;13.80;99.90
4366;DHT22;2196;47.422;9.656;2023-05-10T01:04:20;13.70;99.90
4366;DHT22;2196;47.422;9.656;2023-05-10T01:06:51;13.70;99.90
4366;DHT22;2196;47.422;9.656;2023-05-10T01:09:18;13.60;99.90
4366;DHT22;2196;47.422;9.656;2023-05-10T01:11:46;13.50;99.90
4366;DHT22;2196;47.422;9.656;2023-05-10T01:14:15;13.50;99.90
4366;DHT22;2196;47.422;9.656;2023-05-10T01:16:48;13.50;99.90
4366;DHT22;2196;47.422;9.656;2023-05-10T01:19:19;13.50;99.90
4366;DHT22;2196;47.422;9.656;2023-05-10T01:21:52;13.50;99.90
4366;DHT22;2196;47.422;9.656;2023-05-10T01:28:01;13.50;99.90
4366;DHT22;2196;47.422;9.656;2023-05-10T01:31:08;13.50;99.90
4366;DHT22;2196;47.422;9.656;2023-05-10T01:33:51;13.50;99.90
4366;DHT22;2196;47.422;9.656;2023-05-10T01:36:23;13.50;99.90
4366;DHT22;2196;47.422;9.656;2023-05-10T01:38:55;13.40;99.90
4366;DHT22;2196;47.422;9.656;2023-05-10T01:41:29;13.40;99.90
4366;DHT22;2196;47.422;9.656;2023-05-10T01:44:02;13.40;99.90
4366;DHT22;2196;47.422;9.656;2023-05-10T01:46:34;13.30;99.90
4366;DHT22;2196;47.422;9.656;2023-05-10T01:49:08;13.30;99.90
4366;DHT22;2196;47.422;9.656;2023-05-10T01:51:39;13.30;99.90
4366;DHT22;2196;47.422;9.656;2023-05-10T01:54:10;13.30;99.90
4366;DHT22;2196;47.422;9.656;2023-05-10T01:56:39;13.30;99.90
4366;DHT22;2196;47.422;9.656;2023-05-10T01:59:11;13.30;99.90
4366;DHT22;2196;47.422;9.656;2023-05-10T02:01:40;13.30;99.90
4366;DHT22;2196;47.422;9.656;2023-05-10T02:04:09;13.30;99.90
4366;DHT22;2196;47.422;9.656;2023-05-10T02:06:38;13.30;99.90
4366;DHT22;2196;47.422;9.656;2023-05-10T02:09:06;13.30;99.90
4366;DHT22;2196;47.422;9.656;2023-05-10T02:11:35;13.40;99.90
4366;DHT22;2196;47.422;9.656;2023-05-10T02:14:03;13.30;99.90
4366;DHT22;2196;47.422;9.656;2023-05-10T02:16:32;13.30;99.90
4366;DHT22;2196;47.422;9.656;2023-05-10T02:19:01;13.30;99.90
4366;DHT22;2196;47.422;9.656;2023-05-10T02:21:31;13.20;99.90
4366;DHT22;2196;47.422;9.656;2023-05-10T02:24:01;13.20;99.90
4366;DHT22;2196;47.422;9.656;2023-05-10T02:26:30;13.30;99.90
4366;DHT22;2196;47.422;9.656;2023-05-10T02:28:58;13.40;99.90
4366;DHT22;2196;47.422;9.656;2023-05-10T02:31:26;13.40;99.90
4366;DHT22;2196;47.422;9.656;2023-05-10T02:33:53;13.40;99.90
4366;DHT22;2196;47.422;9.656;2023-05-10T02:36:21;13.50;99.90
4366;DHT22;2196;47.422;9.656;2023-05-10T02:38:51;13.50;99.90
4366;DHT22;2196;47.422;9.656;2023-05-10T02:41:20;13.50;99.90
4366;DHT22;2196;47.422;9.656;2023-05-10T02:43:50;13.50;99.90
4366;DHT22;2196;47.422;9.656;2023-05-10T02:46:18;13.50;99.90
4366;DHT22;2196;47.422;9.656;2023-05-10T02:48:45;13.40;99.90
4366;DHT22;2196;47.422;9.656;2023-05-10T02:51:15;13.40;99.90
4366;DHT22;2196;47.422;9.656;2023-05-10T02:53:45;13.40;99.90
4366;DHT22;2196;47.422;9.656;2023-05-10T02:56:17;13.40;99.90
4366;DHT22;2196;47.422;9.656;2023-05-10T02:58:46;13.40;99.90
4366;DHT22;2196;47.422;9.656;2023-05-10T03:01:13;13.40;99.90
4366;DHT22;2196;47.422;9.656;2023-05-10T03:03:41;13.40;99.90
4366;DHT22;2196;47.422;9.656;2023-05-10T03:06:08;13.40;99.90
4366;DHT22;2196;47.422;9.656;2023-05-10T03:08:35;13.30;99.90
4366;DHT22;2196;47.422;9.656;2023-05-10T03:11:16;13.30;99.90
4366;DHT22;2196;47.422;9.656;2023-05-10T03:14:02;13.30;99.90
4366;DHT22;2196;47.422;9.656;2023-05-10T03:16:39;13.30;99.90
4366;DHT22;2196;47.422;9.656;2023-05-10T03:19:14;13.30;99.90
4366;DHT22;2196;47.422;9.656;2023-05-10T03:21:47;13.30;99.90
4366;DHT22;2196;47.422;9.656;2023-05-10T03:24:16;13.40;99.90
4366;DHT22;2196;47.422;9.656;2023-05-10T03:26:46;13.40;99.90
4366;DHT22;2196;47.422;9.656;2023-05-10T03:29:15;13.40;99.90
4366;DHT22;2196;47.422;9.656;2023-05-10T03:31:42;13.30;99.90
4366;DHT22;2196;47.422;9.656;2023-05-10T03:34:09;13.30;99.90
4366;DHT22;2196;47.422;9.656;2023-05-10T03:36:36;13.30;99.90
4366;DHT22;2196;47.422;9.656;2023-05-10T03:39:03;13.30;99.90
4366;DHT22;2196;47.422;9.656;2023-05-10T03:41:30;13.30;99.90
4366;DHT22;2196;47.422;9.656;2023-05-10T03:43:59;13.30;99.90
4366;DHT22;2196;47.422;9.656;2023-05-10T03:46:26;13.30;99.90
4366;DHT22;2196;47.422;9.656;2023-05-10T03:48:53;13.30;99.90
4366;DHT22;2196;47.422;9.656;2023-05-10T03:51:20;13.40;99.90
4366;DHT22;2196;47.422;9.656;2023-05-10T03:53:47;13.40;99.90
4366;DHT22;2196;47.422;9.656;2023-05-10T03:56:14;13.50;99.90
4366;DHT22;2196;47.422;9.656;2023-05-10T03:58:41;13.50;99.90
4366;DHT22;2196;47.422;9.656;2023-05-10T04:01:09;13.50;99.90
4366;DHT22;2196;47.422;9.656;2023-05-10T04:03:37;13.40;99.90
4366;DHT22;2196;47.422;9.656;2023-05-10T04:06:04;13.40;99.90
4366;DHT22;2196;47.422;9.656;2023-05-10T04:08:31;13.50;99.90
4366;DHT22;2196;47.422;9.656;2023-05-10T04:11:05;13.50;99.90
4366;DHT22;2196;47.422;9.656;2023-05-10T04:13:33;13.50;99.90
4366;DHT22;2196;47.422;9.656;2023-05-10T04:16:00;13.50;99.90
4366;DHT22;2196;47.422;9.656;2023-05-10T04:18:29;13.50;99.90
4366;DHT22;2196;47.422;9.656;2023-05-10T04:20:56;13.50;99.90
4366;DHT22;2196;47.422;9.656;2023-05-10T04:23:23;13.50;99.90
4366;DHT22;2196;47.422;9.656;2023-05-10T04:25:50;13.60;99.90
4366;DHT22;2196;47.422;9.656;2023-05-10T04:28:17;13.60;99.90
4366;DHT22;2196;47.422;9.656;2023-05-10T04:30:44;13.70;99.90
4366;DHT22;2196;47.422;9.656;2023-05-10T04:33:11;13.70;99.90
4366;DHT22;2196;47.422;9.656;2023-05-10T04:35:39;13.70;99.90
4366;DHT22;2196;47.422;9.656;2023-05-10T04:38:06;13.70;99.90
4366;DHT22;2196;47.422;9.656;2023-05-10T04:40:33;13.70;99.90
4366;DHT22;2196;47.422;9.656;2023-05-10T04:43:01;13.80;99.90
4366;DHT22;2196;47.422;9.656;2023-05-10T04:45:28;13.70;99.90
4366;DHT22;2196;47.422;9.656;2023-05-10T04:47:55;13.60;99.90
4366;DHT22;2196;47.422;9.656;2023-05-10T04:50:22;13.60;99.90
4366;DHT22;2196;47.422;9.656;2023-05-10T04:52:50;13.60;99.90
4366;DHT22;2196;47.422;9.656;2023-05-10T04:55:17;13.70;99.90
4366;DHT22;2196;47.422;9.656;2023-05-10T04:57:44;13.80;99.90
4366;DHT22;2196;47.422;9.656;2023-05-10T05:00:12;13.80;99.90
4366;DHT22;2196;47.422;9.656;2023-05-10T05:02:42;13.80;99.90
4366;DHT22;2196;47.422;9.656;2023-05-10T05:05:10;13.80;99.90
4366;DHT22;2196;47.422;9.656;2023-05-10T05:07:37;13.90;99.90
4366;DHT22;2196;47.422;9.656;2023-05-10T05:10:06;13.90;99.90
4366;DHT22;2196;47.422;9.656;2023-05-10T05:12:34;13.90;99.90
4366;DHT22;2196;47.422;9.656;2023-05-10T05:15:01;14.00;99.90
4366;DHT22;2196;47.422;9.656;2023-05-10T05:17:33;14.00;99.90
4366;DHT22;2196;47.422;9.656;2023-05-10T05:20:00;14.00;99.90
4366;DHT22;2196;47.422;9.656;2023-05-10T05:22:27;14.00;99.90
4366;DHT22;2196;47.422;9.656;2023-05-10T05:24:55;14.10;99.90
4366;DHT22;2196;47.422;9.656;2023-05-10T05:27:23;14.10;99.90
4366;DHT22;2196;47.422;9.656;2023-05-10T05:29:52;14.20;99.90
4366;DHT22;2196;47.422;9.656;2023-05-10T05:32:19;14.30;99.90
4366;DHT22;2196;47.422;9.656;2023-05-10T05:34:46;14.40;99.90
4366;DHT22;2196;47.422;9.656;2023-05-10T05:37:13;14.40;99.90
4366;DHT22;2196;47.422;9.656;2023-05-10T05:39:41;14.50;99.90
4366;DHT22;2196;47.422;9.656;2023-05-10T05:42:08;14.50;99.90
4366;DHT22;2196;47.422;9.656;2023-05-10T05:44:37;14.50;99.90
4366;DHT22;2196;47.422;9.656;2023-05-10T05:47:04;14.40;99.90
4366;DHT22;2196;47.422;9.656;2023-05-10T05:49:32;14.30;99.90
4366;DHT22;2196;47.422;9.656;2023-05-10T05:51:59;14.30;99.90
4366;DHT22;2196;47.422;9.656;2023-05-10T05:54:27;14.30;99.90
4366;DHT22;2196;47.422;9.656;2023-05-10T05:56:54;14.30;99.90
4366;DHT22;2196;47.422;9.656;2023-05-10T05:59:22;14.30;99.90
4366;DHT22;2196;47.422;9.656;2023-05-10T06:01:50;14.30;99.90
4366;DHT22;2196;47.422;9.656;2023-05-10T06:04:18;14.30;99.90
4366;DHT22;2196;47.422;9.656;2023-05-10T06:06:45;14.40;99.90
4366;DHT22;2196;47.422;9.656;2023-05-10T06:09:12;14.40;99.90
4366;DHT22;2196;47.422;9.656;2023-05-10T06:11:40;14.50;99.90
4366;DHT22;2196;47.422;9.656;2023-05-10T06:14:07;14.50;99.90
4366;DHT22;2196;47.422;9.656;2023-05-10T06:16:35;14.40;99.90
4366;DHT22;2196;47.422;9.656;2023-05-10T06:19:03;14.40;99.90
4366;DHT22;2196;47.422;9.656;2023-05-10T06:21:30;14.50;99.90
4366;DHT22;2196;47.422;9.656;2023-05-10T06:23:57;14.40;99.90
4366;DHT22;2196;47.422;9.656;2023-05-10T06:26:24;14.20;99.90
4366;DHT22;2196;47.422;9.656;2023-05-10T06:28:51;14.30;99.90
4366;DHT22;2196;47.422;9.656;2023-05-10T06:31:18;14.20;99.90
4366;DHT22;2196;47.422;9.656;2023-05-10T06:33:45;14.20;99.90
4366;DHT22;2196;47.422;9.656;2023-05-10T06:36:13;14.20;99.90
4366;DHT22;2196;47.422;9.656;2023-05-10T06:38:40;14.10;99.90
4366;DHT22;2196;47.422;9.656;2023-05-10T06:41:07;14.10;99.90
4366;DHT22;2196;47.422;9.656;2023-05-10T06:43:34;14.20;99.90
4366;DHT22;2196;47.422;9.656;2023-05-10T06:46:05;14.20;99.90
4366;DHT22;2196;47.422;9.656;2023-05-10T06:48:33;14.20;99.90
4366;DHT22;2196;47.422;9.656;2023-05-10T06:51:00;14.20;99.90
4366;DHT22;2196;47.422;9.656;2023-05-10T06:53:28;14.30;99.90
4366;DHT22;2196;47.422;9.656;2023-05-10T06:55:55;14.20;99.90
4366;DHT22;2196;47.422;9.656;2023-05-10T06:58:22;14.20;99.90
4366;DHT22;2196;47.422;9.656;2023-05-10T07:00:50;14.20;99.90
4366;DHT22;2196;47.422;9.656;2023-05-10T07:03:17;14.20;99.90
4366;DHT22;2196;47.422;9.656;2023-05-10T07:05:44;14.20;99.90
4366;DHT22;2196;47.422;9.656;2023-05-10T07:08:11;14.20;99.90
4366;DHT22;2196;47.422;9.656;2023-05-10T07:10:40;14.00;99.90
4366;DHT22;2196;47.422;9.656;2023-05-10T07:13:07;14.10;99.90
4366;DHT22;2196;47.422;9.656;2023-05-10T07:15:35;14.10;99.90
4366;DHT22;2196;47.422;9.656;2023-05-10T07:18:02;14.10;99.90
4366;DHT22;2196;47.422;9.656;2023-05-10T07:20:31;14.20;99.90
4366;DHT22;2196;47.422;9.656;2023-05-10T07:22:59;14.20;99.90
4366;DHT22;2196;47.422;9.656;2023-05-10T07:25:25;14.10;99.90
4366;DHT22;2196;47.422;9.656;2023-05-10T07:27:54;14.20;99.90
4366;DHT22;2196;47.422;9.656;2023-05-10T07:30:21;14.10;99.90
4366;DHT22;2196;47.422;9.656;2023-05-10T07:32:48;14.00;99.90
4366;DHT22;2196;47.422;9.656;2023-05-10T07:35:15;14.00;99.90
4366;DHT22;2196;47.422;9.656;2023-05-10T07:37:42;14.00;99.90
4366;DHT22;2196;47.422;9.656;2023-05-10T07:40:09;14.00;99.90
4366;DHT22;2196;47.422;9.656;2023-05-10T07:42:36;14.10;99.90
4366;DHT22;2196;47.422;9.656;2023-05-10T07:45:06;14.10;99.90
4366;DHT22;2196;47.422;9.656;2023-05-10T07:47:37;13.90;99.90
4366;DHT22;2196;47.422;9.656;2023-05-10T07:50:06;13.90;99.90
4366;DHT22;2196;47.422;9.656;2023-05-10T07:52:34;13.90;99.90
4366;DHT22;2196;47.422;9.656;2023-05-10T07:55:01;13.90;99.90
4366;DHT22;2196;47.422;9.656;2023-05-10T07:57:29;13.90;99.90
4366;DHT22;2196;47.422;9.656;2023-05-10T07:59:56;13.70;99.90
4366;DHT22;2196;47.422;9.656;2023-05-10T08:02:24;13.60;99.90
4366;DHT22;2196;47.422;9.656;2023-05-10T08:04:51;13.60;99.90
4366;DHT22;2196;47.422;9.656;2023-05-10T08:07:18;13.50;99.90
4366;DHT22;2196;47.422;9.656;2023-05-10T08:09:46;13.40;99.90
4366;DHT22;2196;47.422;9.656;2023-05-10T08:12:13;13.50;99.90
4366;DHT22;2196;47.422;9.656;2023-05-10T08:14:40;13.40;99.90
4366;DHT22;2196;47.422;9.656;2023-05-10T08:17:07;13.50;99.90
4366;DHT22;2196;47.422;9.656;2023-05-10T08:19:35;13.50;99.90
4366;DHT22;2196;47.422;9.656;2023-05-10T08:22:02;13.50;99.90
4366;DHT22;2196;47.422;9.656;2023-05-10T08:24:29;13.50;99.90
4366;DHT22;2196;47.422;9.656;2023-05-10T08:26:56;13.50;99.90
4366;DHT22;2196;47.422;9.656;2023-05-10T08:29:23;13.50;99.90
4366;DHT22;2196;47.422;9.656;2023-05-10T08:31:50;13.50;99.90
4366;DHT22;2196;47.422;9.656;2023-05-10T08:34:17;13.70;99.90
4366;DHT22;2196;47.422;9.656;2023-05-10T08:36:45;13.60;99.90
4366;DHT22;2196;47.422;9.656;2023-05-10T08:39:12;13.70;99.90
4366;DHT22;2196;47.422;9.656;2023-05-10T08:41:39;13.70;99.90
4366;DHT22;2196;47.422;9.656;2023-05-10T08:44:10;13.80;99.90
4366;DHT22;2196;47.422;9.656;2023-05-10T08:46:37;13.80;99.90
4366;DHT22;2196;47.422;9.656;2023-05-10T08:49:13;13.70;99.90
4366;DHT22;2196;47.422;9.656;2023-05-10T08:51:47;13.80;99.90
4366;DHT22;2196;47.422;9.656;2023-05-10T08:54:15;13.80;99.90
4366;DHT22;2196;47.422;9.656;2023-05-10T08:56:42;13.80;99.90
4366;DHT22;2196;47.422;9.656;2023-05-10T08:59:09;13.80;99.90
4366;DHT22;2196;47.422;9.656;2023-05-10T09:01:38;13.80;99.90
4366;DHT22;2196;47.422;9.656;2023-05-10T09:04:05;13.90;99.90
4366;DHT22;2196;47.422;9.656;2023-05-10T09:06:33;13.80;99.90
4366;DHT22;2196;47.422;9.656;2023-05-10T09:09:01;13.70;99.90
4366;DHT22;2196;47.422;9.656;2023-05-10T09:11:29;13.80;99.90
4366;DHT22;2196;47.422;9.656;2023-05-10T09:13:57;13.80;99.90
4366;DHT22;2196;47.422;9.656;2023-05-10T09:16:24;13.80;99.90
4366;DHT22;2196;47.422;9.656;2023-05-10T09:18:51;13.70;99.90
4366;DHT22;2196;47.422;9.656;2023-05-10T09:21:19;13.70;99.90
4366;DHT22;2196;47.422;9.656;2023-05-10T09:23:47;13.70;99.90
4366;DHT22;2196;47.422;9.656;2023-05-10T09:26:16;13.70;99.90
4366;DHT22;2196;47.422;9.656;2023-05-10T09:28:51;13.80;99.90
4366;DHT22;2196;47.422;9.656;2023-05-10T09:31:18;13.80;99.90
4366;DHT22;2196;47.422;9.656;2023-05-10T09:33:46;13.90;99.90
4366;DHT22;2196;47.422;9.656;2023-05-10T09:36:13;14.00;99.90
4366;DHT22;2196;47.422;9.656;2023-05-10T09:38:48;14.20;99.90
4366;DHT22;2196;47.422;9.656;2023-05-10T09:41:20;14.20;99.90
4366;DHT22;2196;47.422;9.656;2023-05-10T09:43:48;14.00;99.90
4366;DHT22;2196;47.422;9.656;2023-05-10T09:46:16;14.00;99.90
4366;DHT22;2196;47.422;9.656;2023-05-10T09:48:45;14.00;99.90
4366;DHT22;2196;47.422;9.656;2023-05-10T09:51:19;14.10;99.90
4366;DHT22;2196;47.422;9.656;2023-05-10T09:53:45;14.30;99.90
4366;DHT22;2196;47.422;9.656;2023-05-10T09:56:12;14.30;99.90
4366;DHT22;2196;47.422;9.656;2023-05-10T09:58:41;14.30;99.90
4366;DHT22;2196;47.422;9.656;2023-05-10T10:01:11;14.40;99.90
4366;DHT22;2196;47.422;9.656;2023-05-10T10:03:42;14.50;99.90
4366;DHT22;2196;47.422;9.656;2023-05-10T10:06:09;14.60;99.90
4366;DHT22;2196;47.422;9.656;2023-05-10T10:08:36;14.60;99.90
4366;DHT22;2196;47.422;9.656;2023-05-10T10:11:03;14.50;99.90
4366;DHT22;2196;47.422;9.656;2023-05-10T10:13:30;14.50;99.90
4366;DHT22;2196;47.422;9.656;2023-05-10T10:16:00;14.40;99.90
4366;DHT22;2196;47.422;9.656;2023-05-10T10:18:27;14.40;99.90
4366;DHT22;2196;47.422;9.656;2023-05-10T10:20:55;14.40;99.90
4366;DHT22;2196;47.422;9.656;2023-05-10T10:23:22;14.20;99.90
4366;DHT22;2196;47.422;9.656;2023-05-10T10:25:49;14.20;99.90
4366;DHT22;2196;47.422;9.656;2023-05-10T10:28:24;14.20;99.90
4366;DHT22;2196;47.422;9.656;2023-05-10T10:30:54;14.00;99.90
4366;DHT22;2196;47.422;9.656;2023-05-10T10:33:33;13.90;99.90
4366;DHT22;2196;47.422;9.656;2023-05-10T10:36:03;14.00;99.90
4366;DHT22;2196;47.422;9.656;2023-05-10T10:38:38;14.00;99.90
4366;DHT22;2196;47.422;9.656;2023-05-10T10:41:32;13.90;99.90
4366;DHT22;2196;47.422;9.656;2023-05-10T10:44:24;13.90;99.90
4366;DHT22;2196;47.422;9.656;2023-05-10T10:47:03;13.80;99.90
4366;DHT22;2196;47.422;9.656;2023-05-10T10:49:38;13.80;99.90
4366;DHT22;2196;47.422;9.656;2023-05-10T10:52:25;13.70;99.90
4366;DHT22;2196;47.422;9.656;2023-05-10T10:54:59;13.60;99.90
4366;DHT22;2196;47.422;9.656;2023-05-10T10:57:28;13.60;99.90
4366;DHT22;2196;47.422;9.656;2023-05-10T11:00:22;13.70;99.90
4366;DHT22;2196;47.422;9.656;2023-05-10T11:02:50;13.90;99.90
4366;DHT22;2196;47.422;9.656;2023-05-10T11:05:47;14.10;99.90
4366;DHT22;2196;47.422;9.656;2023-05-10T11:08:19;14.10;99.90
4366;DHT22;2196;47.422;9.656;2023-05-10T11:11:02;14.20;99.90
4366;DHT22;2196;47.422;9.656;2023-05-10T11:13:31;14.20;99.90
4366;DHT22;2196;47.422;9.656;2023-05-10T11:15:59;14.40;99.90
4366;DHT22;2196;47.422;9.656;2023-05-10T11:18:36;14.40;99.90
4366;DHT22;2196;47.422;9.656;2023-05-10T11:21:07;14.50;99.90
4366;DHT22;2196;47.422;9.656;2023-05-10T11:23:48;14.70;99.90
4366;DHT22;2196;47.422;9.656;2023-05-10T11:26:15;14.80;99.90
4366;DHT22;2196;47.422;9.656;2023-05-10T11:28:43;14.90;99.90
4366;DHT22;2196;47.422;9.656;2023-05-10T11:31:10;14.90;99.90
4366;DHT22;2196;47.422;9.656;2023-05-10T11:33:43;14.90;99.90
4366;DHT22;2196;47.422;9.656;2023-05-10T11:36:13;14.90;99.90
4366;DHT22;2196;47.422;9.656;2023-05-10T11:38:41;14.90;99.90
4366;DHT22;2196;47.422;9.656;2023-05-10T11:41:08;14.90;99.90
4366;DHT22;2196;47.422;9.656;2023-05-10T11:43:37;15.00;99.90
4366;DHT22;2196;47.422;9.656;2023-05-10T11:46:05;15.20;99.90
4366;DHT22;2196;47.422;9.656;2023-05-10T11:48:33;15.20;99.90
4366;DHT22;2196;47.422;9.656;2023-05-10T11:51:01;15.40;99.90
4366;DHT22;2196;47.422;9.656;2023-05-10T11:53:30;15.30;99.90
4366;DHT22;2196;47.422;9.656;2023-05-10T11:56:03;15.20;99.90
4366;DHT22;2196;47.422;9.656;2023-05-10T11:58:31;15.30;99.90
4366;DHT22;2196;47.422;9.656;2023-05-10T12:00:58;15.20;99.90
4366;DHT22;2196;47.422;9.656;2023-05-10T12:03:26;15.30;99.90
4366;DHT22;2196;47.422;9.656;2023-05-10T12:05:54;15.40;99.90
4366;DHT22;2196;47.422;9.656;2023-05-10T12:08:22;15.40;99.90
4366;DHT22;2196;47.422;9.656;2023-05-10T12:10:50;15.30;99.90
4366;DHT22;2196;47.422;9.656;2023-05-10T12:13:19;15.30;99.90
4366;DHT22;2196;47.422;9.656;2023-05-10T12:15:47;15.30;99.90
4366;DHT22;2196;47.422;9.656;2023-05-10T12:18:14;15.10;99.90
4366;DHT22;2196;47.422;9.656;2023-05-10T12:20:41;15.10;99.90
4366;DHT22;2196;47.422;9.656;2023-05-10T12:23:09;14.90;99.90
4366;DHT22;2196;47.422;9.656;2023-05-10T12:25:37;15.00;99.90
4366;DHT22;2196;47.422;9.656;2023-05-10T12:28:06;15.00;99.90
4366;DHT22;2196;47.422;9.656;2023-05-10T12:30:35;15.00;99.90
4366;DHT22;2196;47.422;9.656;2023-05-10T12:33:07;15.00;99.90
4366;DHT22;2196;47.422;9.656;2023-05-10T12:35:43;15.00;99.90
4366;DHT22;2196;47.422;9.656;2023-05-10T12:38:26;15.00;99.90
4366;DHT22;2196;47.422;9.656;2023-05-10T12:40:55;14.90;99.90
4366;DHT22;2196;47.422;9.656;2023-05-10T12:43:23;14.70;99.90
4366;DHT22;2196;47.422;9.656;2023-05-10T12:45:50;14.60;99.90
4366;DHT22;2196;47.422;9.656;2023-05-10T12:48:17;14.50;99.90
4366;DHT22;2196;47.422;9.656;2023-05-10T12:50:44;14.50;99.90
4366;DHT22;2196;47.422;9.656;2023-05-10T12:53:12;14.30;99.90
4366;DHT22;2196;47.422;9.656;2023-05-10T12:55:41;14.30;99.90
4366;DHT22;2196;47.422;9.656;2023-05-10T12:58:08;14.20;99.90
4366;DHT22;2196;47.422;9.656;2023-05-10T13:00:36;14.30;99.90
4366;DHT22;2196;47.422;9.656;2023-05-10T13:03:03;14.30;99.90
4366;DHT22;2196;47.422;9.656;2023-05-10T13:05:31;14.30;99.90
4366;DHT22;2196;47.422;9.656;2023-05-10T13:07:58;14.40;99.90
4366;DHT22;2196;47.422;9.656;2023-05-10T13:10:26;14.40;99.90
4366;DHT22;2196;47.422;9.656;2023-05-10T13:12:52;14.50;99.90
4366;DHT22;2196;47.422;9.656;2023-05-10T13:15:20;14.40;99.90
4366;DHT22;2196;47.422;9.656;2023-05-10T13:17:48;14.40;99.90
4366;DHT22;2196;47.422;9.656;2023-05-10T13:20:16;14.40;99.90
4366;DHT22;2196;47.422;9.656;2023-05-10T13:22:43;14.30;99.90
4366;DHT22;2196;47.422;9.656;2023-05-10T13:25:11;14.40;99.90
4366;DHT22;2196;47.422;9.656;2023-05-10T13:27:38;14.30;99.90
4366;DHT22;2196;47.422;9.656;2023-05-10T13:30:06;14.30;99.90
4366;DHT22;2196;47.422;9.656;2023-05-10T13:32:34;14.30;99.90
4366;DHT22;2196;47.422;9.656;2023-05-10T13:35:04;14.30;99.90
4366;DHT22;2196;47.422;9.656;2023-05-10T13:37:32;14.40;99.90
4366;DHT22;2196;47.422;9.656;2023-05-10T13:40:03;14.20;99.90
4366;DHT22;2196;47.422;9.656;2023-05-10T13:42:32;14.20;99.90
4366;DHT22;2196;47.422;9.656;2023-05-10T13:45:06;14.00;99.90
4366;DHT22;2196;47.422;9.656;2023-05-10T13:47:36;14.00;99.90
4366;DHT22;2196;47.422;9.656;2023-05-10T13:50:06;13.90;99.90
4366;DHT22;2196;47.422;9.656;2023-05-10T13:52:33;13.90;99.90
4366;DHT22;2196;47.422;9.656;2023-05-10T13:55:00;13.90;99.90
4366;DHT22;2196;47.422;9.656;2023-05-10T13:57:28;13.90;99.90
4366;DHT22;2196;47.422;9.656;2023-05-10T13:59:55;13.80;99.90
4366;DHT22;2196;47.422;9.656;2023-05-10T14:02:22;13.80;99.90
4366;DHT22;2196;47.422;9.656;2023-05-10T14:04:50;13.80;99.90
4366;DHT22;2196;47.422;9.656;2023-05-10T14:07:18;13.90;99.90
4366;DHT22;2196;47.422;9.656;2023-05-10T14:09:46;13.90;99.90
4366;DHT22;2196;47.422;9.656;2023-05-10T14:12:12;14.00;99.90
4366;DHT22;2196;47.422;9.656;2023-05-10T14:14:40;14.00;99.90
4366;DHT22;2196;47.422;9.656;2023-05-10T14:17:07;14.10;99.90
4366;DHT22;2196;47.422;9.656;2023-05-10T14:19:33;14.20;99.90
4366;DHT22;2196;47.422;9.656;2023-05-10T14:22:00;14.20;99.90
4366;DHT22;2196;47.422;9.656;2023-05-10T14:24:29;14.20;99.90
4366;DHT22;2196;47.422;9.656;2023-05-10T14:26:56;14.10;99.90
4366;DHT22;2196;47.422;9.656;2023-05-10T14:29:24;14.10;99.90
4366;DHT22;2196;47.422;9.656;2023-05-10T14:31:51;14.20;99.90
4366;DHT22;2196;47.422;9.656;2023-05-10T14:34:18;14.20;99.90
4366;DHT22;2196;47.422;9.656;2023-05-10T14:36:45;14.30;99.90
4366;DHT22;2196;47.422;9.656;2023-05-10T14:39:12;14.10;99.90
4366;DHT22;2196;47.422;9.656;2023-05-10T14:41:40;14.00;99.90
4366;DHT22;2196;47.422;9.656;2023-05-10T14:44:10;14.00;99.90
4366;DHT22;2196;47.422;9.656;2023-05-10T14:46:36;13.90;99.90
4366;DHT22;2196;47.422;9.656;2023-05-10T14:49:04;13.70;99.90
4366;DHT22;2196;47.422;9.656;2023-05-10T14:51:30;13.70;99.90
4366;DHT22;2196;47.422;9.656;2023-05-10T14:53:57;13.70;99.90
4366;DHT22;2196;47.422;9.656;2023-05-10T14:56:25;13.70;99.90
4366;DHT22;2196;47.422;9.656;2023-05-10T14:58:54;13.80;99.90
4366;DHT22;2196;47.422;9.656;2023-05-10T15:01:21;13.80;99.90
4366;DHT22;2196;47.422;9.656;2023-05-10T15:03:48;14.00;99.90
4366;DHT22;2196;47.422;9.656;2023-05-10T15:06:16;14.00;99.90
4366;DHT22;2196;47.422;9.656;2023-05-10T15:08:43;14.00;99.90
4366;DHT22;2196;47.422;9.656;2023-05-10T15:11:10;14.00;99.90
4366;DHT22;2196;47.422;9.656;2023-05-10T15:13:36;14.00;99.90
4366;DHT22;2196;47.422;9.656;2023-05-10T15:16:05;14.00;99.90
4366;DHT22;2196;47.422;9.656;2023-05-10T15:18:32;14.00;99.90
4366;DHT22;2196;47.422;9.656;2023-05-10T15:20:59;14.10;99.90
4366;DHT22;2196;47.422;9.656;2023-05-10T15:23:26;14.10;99.90
4366;DHT22;2196;47.422;9.656;2023-05-10T15:25:54;14.10;99.90
4366;DHT22;2196;47.422;9.656;2023-05-10T15:28:21;14.10;99.90
4366;DHT22;2196;47.422;9.656;2023-05-10T15:30:48;14.00;99.90
4366;DHT22;2196;47.422;9.656;2023-05-10T15:33:16;14.10;99.90
4366;DHT22;2196;47.422;9.656;2023-05-10T15:35:43;14.20;99.90
4366;DHT22;2196;47.422;9.656;2023-05-10T15:38:10;14.20;99.90
4366;DHT22;2196;47.422;9.656;2023-05-10T15:40:37;14.20;99.90
4366;DHT22;2196;47.422;9.656;2023-05-10T15:43:04;14.20;99.90
4366;DHT22;2196;47.422;9.656;2023-05-10T15:45:32;14.20;99.90
4366;DHT22;2196;47.422;9.656;2023-05-10T15:47:59;14.30;99.90
4366;DHT22;2196;47.422;9.656;2023-05-10T15:50:28;14.20;99.90
4366;DHT22;2196;47.422;9.656;2023-05-10T15:52:55;14.20;99.90
4366;DHT22;2196;47.422;9.656;2023-05-10T15:55:21;14.00;99.90
4366;DHT22;2196;47.422;9.656;2023-05-10T15:57:48;13.90;99.90
4366;DHT22;2196;47.422;9.656;2023-05-10T16:00:16;13.90;99.90
4366;DHT22;2196;47.422;9.656;2023-05-10T16:02:43;13.90;99.90
4366;DHT22;2196;47.422;9.656;2023-05-10T16:05:10;13.90;99.90
4366;DHT22;2196;47.422;9.656;2023-05-10T16:07:39;13.90;99.90
4366;DHT22;2196;47.422;9.656;2023-05-10T16:10:08;13.90;99.90
4366;DHT22;2196;47.422;9.656;2023-05-10T16:12:37;13.80;99.90
4366;DHT22;2196;47.422;9.656;2023-05-10T16:15:05;13.90;99.90
4366;DHT22;2196;47.422;9.656;2023-05-10T16:17:35;13.80;99.90
4366;DHT22;2196;47.422;9.656;2023-05-10T16:20:02;13.70;99.90
4366;DHT22;2196;47.422;9.656;2023-05-10T16:22:29;13.70;99.90
4366;DHT22;2196;47.422;9.656;2023-05-10T16:24:58;13.50;99.90
4366;DHT22;2196;47.422;9.656;2023-05-10T16:27:25;13.50;99.90
4366;DHT22;2196;47.422;9.656;2023-05-10T16:29:54;13.60;99.90
4366;DHT22;2196;47.422;9.656;2023-05-10T16:32:21;13.60;99.90
4366;DHT22;2196;47.422;9.656;2023-05-10T16:34:48;13.50;99.90
4366;DHT22;2196;47.422;9.656;2023-05-10T16:37:15;13.50;99.90
4366;DHT22;2196;47.422;9.656;2023-05-10T16:39:43;13.50;99.90
4366;DHT22;2196;47.422;9.656;2023-05-10T16:42:11;13.50;99.90